Arbyrd, Missouri
Current Conditions -  °F | °C
As of 9:53 PM on Tuesday 21 Oct 2014 (Local Time) from KHKA Reporting Station
Clear Clear  
Wind Chill: 56°   Ceiling: Unl
Heat Index: 56°   Visibility: 10mi
Dew Point: 49°   Wind: 6mph
Humidity: 77%   Direction: 50°NE
Pressure: 30.12"   Gusts: NA
Location:  36.05°N, 90.24°W
Report Text: KHKA 220253Z AUTO 05005KT 10SM CLR 13/09 A3012 RMK AO2 SLP200 T01330094 51021
Loading
Personal Weather Stations






























Interactive Weather Map New forecast layout! Learn more

10-Day Weather Forecast

Advertisements
Track Severe Weather on mobile